Aviation Services » Terminal Aerodrome Forecasts Thursday, January 19, 2017
 Terminal Aerodrome Forecasts (TAF)

TAF NVSC 181600Z 1818/1918 VRB02KT 9999 SCT020 BKN040
INTER 1818/1824 7000 -TSRA BKN016 FEW020CB
BECMG 1819/1822 17005KT=

TAF NVSG 181600Z 1818/1918 VRB02KT 9999 SCT020 BKN040
INTER 1818/1824 7000 -TSRA BKN016 FEW020CB
BECMG 1819/1822 14005KT=

TAF NVSS 181600Z 1818/1918 VRB02KT 9999 SCT020 BKN040
INTER 1818/1824 7000 -TSRA BKN016 FEW020CB
BECMG 1819/1822 14005KT=

TAF NVSL 181600Z 1818/1918 VRB02KT 9999 SCT022
BECMG 1819/1821 12005KT=

TAF NVVV 181600Z 1818/1918 VRB02KT 9999 SCT022
BECMG 1819/1821 13005KT=

TAF NVVW 181600Z 1818/1918 VRB02KT 9999 SCT020 BKN040
PROB30 INTER 1818/1824 8000 SHRA BKN018
BECMG 1818/1820 11006KT=

TAF NVVA 181600Z 1818/1918 VRB02KT 9999 SCT020
PROB30 INTER 1818/1824 8000 SHRA BKN018
BECMG 1818/1820 11008KT=